Time;durP1;ratioP1;P1;durP2;ratioP2;P2;SDS_P1;SDS_P2;PMS_P1;PMS_P2;Temp;Humidity;BMP_temperature;BMP_pressure;BME280_temperature;BME280_humidity;BME280_pressure;Samples;Min_cycle;Max_cycle;Signal;HPM_P1;HPM_P2
2022/01/18 00:01:49;;;;;;;43.45;7.30;;;7.20;99.90;;;;;;5063463;28;20044;-51
2022/01/18 00:04:15;;;;;;;39.80;6.38;;;7.20;99.90;;;;;;5060494;28;20055;-51
2022/01/18 00:06:44;;;;;;;44.10;6.18;;;7.20;99.90;;;;;;5068016;28;20040;-49
2022/01/18 00:09:10;;;;;;;36.92;5.85;;;7.20;99.90;;;;;;5061567;28;20052;-50
2022/01/18 00:11:43;;;;;;;44.83;6.43;;;7.20;99.90;;;;;;5063632;28;20055;-48
2022/01/18 00:14:22;;;;;;;44.90;6.85;;;7.20;99.90;;;;;;5065332;28;20032;-51
2022/01/18 00:17:19;;;;;;;34.50;5.32;;;7.20;99.90;;;;;;5056151;28;20068;-47
2022/01/18 00:19:54;;;;;;;42.65;6.53;;;7.20;99.90;;;;;;5057324;28;20083;-50
2022/01/18 00:22:20;;;;;;;38.20;6.55;;;7.20;99.90;;;;;;5057613;28;20056;-51
2022/01/18 00:24:45;;;;;;;35.45;6.03;;;7.20;99.90;;;;;;5056195;28;20052;-52
2022/01/18 00:27:14;;;;;;;37.17;6.07;;;7.20;99.90;;;;;;5058599;28;20044;-52
2022/01/18 00:29:51;;;;;;;41.60;6.63;;;7.20;99.90;;;;;;5058726;28;20040;-47
2022/01/18 00:32:31;;;;;;;39.78;6.90;;;7.20;99.90;;;;;;5057257;28;20135;-51
2022/01/18 00:34:57;;;;;;;41.08;6.55;;;7.20;99.90;;;;;;5056397;28;20032;-48
2022/01/18 00:37:33;;;;;;;47.72;6.38;;;7.10;99.90;;;;;;5057537;28;20052;-50
2022/01/18 00:39:59;;;;;;;44.05;7.47;;;7.10;99.90;;;;;;5060228;28;20164;-48
2022/01/18 00:42:25;;;;;;;41.53;6.75;;;7.10;99.90;;;;;;5057009;28;20199;-48
2022/01/18 00:44:50;;;;;;;45.35;6.57;;;7.10;99.90;;;;;;5056869;28;20045;-53
2022/01/18 00:47:16;;;;;;;38.78;6.15;;;7.10;99.90;;;;;;5054630;28;20048;-48
2022/01/18 00:49:45;;;;;;;39.13;6.32;;;7.10;99.90;;;;;;5056668;28;20044;-51
2022/01/18 00:52:11;;;;;;;34.47;6.65;;;7.10;99.90;;;;;;5055868;28;20048;-50
2022/01/18 00:54:41;;;;;;;46.88;6.85;;;7.10;99.90;;;;;;5057233;28;20110;-50
2022/01/18 00:57:07;;;;;;;51.78;7.55;;;7.10;99.90;;;;;;5055305;28;20494;-51
2022/01/18 00:59:32;;;;;;;43.97;7.55;;;7.10;99.90;;;;;;5057364;28;20119;-51
2022/01/18 01:01:58;;;;;;;42.05;6.80;;;7.10;99.90;;;;;;5060775;28;20478;-51
2022/01/18 01:04:28;;;;;;;47.92;7.45;;;7.10;99.90;;;;;;5059075;28;20055;-48
2022/01/18 01:06:53;;;;;;;42.45;7.35;;;7.10;99.90;;;;;;5058465;28;20203;-52
2022/01/18 01:09:19;;;;;;;39.28;7.53;;;7.10;99.90;;;;;;5056154;28;20115;-49
2022/01/18 01:11:46;;;;;;;47.75;7.90;;;7.10;99.90;;;;;;5061905;28;20505;-50
2022/01/18 01:14:18;;;;;;;37.85;7.35;;;7.10;99.90;;;;;;5058550;28;20076;-50
2022/01/18 01:16:56;;;;;;;37.67;7.60;;;7.10;99.90;;;;;;5053093;28;20456;-49
2022/01/18 01:19:42;;;;;;;36.65;7.07;;;7.20;99.90;;;;;;5053939;28;20182;-50
2022/01/18 01:46:25;;;;;;;45.90;7.20;;;7.10;99.90;;;;;;5060320;28;20056;-49
2022/01/18 01:48:54;;;;;;;50.47;8.48;;;7.10;99.90;;;;;;5057514;28;20033;-51
2022/01/18 01:51:21;;;;;;;37.35;6.93;;;7.10;99.90;;;;;;5061449;28;20548;-50
2022/01/18 01:53:47;;;;;;;46.42;7.03;;;7.10;99.90;;;;;;5059729;28;20075;-50
2022/01/18 01:56:13;;;;;;;52.58;7.20;;;7.10;99.90;;;;;;5059291;28;20037;-51
2022/01/18 01:58:38;;;;;;;42.75;7.00;;;7.10;99.90;;;;;;5054017;28;20083;-48
2022/01/18 02:01:06;;;;;;;50.53;8.68;;;7.10;99.90;;;;;;5054976;28;20136;-48
2022/01/18 02:03:32;;;;;;;44.97;6.85;;;7.00;99.90;;;;;;5057941;28;20064;-48
2022/01/18 02:05:58;;;;;;;42.40;7.22;;;7.00;99.90;;;;;;5058441;28;20072;-48
2022/01/18 02:08:24;;;;;;;51.25;7.32;;;7.00;99.90;;;;;;5059387;28;20075;-50
2022/01/18 02:10:49;;;;;;;50.03;8.68;;;7.00;99.90;;;;;;5057465;28;20048;-49
2022/01/18 02:13:16;;;;;;;43.33;8.02;;;7.00;99.90;;;;;;5056149;28;20090;-48
2022/01/18 02:23:56;;;;;;;42.35;6.68;;;6.90;99.90;;;;;;5057182;28;20041;-48
2022/01/18 02:26:21;;;;;;;43.28;7.63;;;6.90;99.90;;;;;;5059038;28;20486;-47
2022/01/18 02:28:47;;;;;;;34.08;6.43;;;6.90;99.90;;;;;;5057633;28;20033;-49
2022/01/18 02:31:12;;;;;;;48.78;8.38;;;6.90;99.90;;;;;;5057018;28;20337;-49
2022/01/18 02:33:38;;;;;;;51.58;7.68;;;6.90;99.90;;;;;;5058980;28;20511;-47
2022/01/18 02:36:09;;;;;;;37.08;7.00;;;6.80;99.90;;;;;;5063043;28;20040;-48
2022/01/18 02:38:35;;;;;;;40.72;7.45;;;6.80;99.90;;;;;;5065282;28;20064;-48
2022/01/18 02:41:01;;;;;;;36.20;6.78;;;6.80;99.90;;;;;;5061845;28;20155;-51
2022/01/18 02:46:11;;;;;;;31.60;7.20;;;6.80;99.90;;;;;;5057088;28;20502;-48
2022/01/18 02:48:37;;;;;;;34.05;6.50;;;6.80;99.90;;;;;;5060340;28;20072;-49
2022/01/18 02:51:03;;;;;;;37.95;6.53;;;6.70;99.90;;;;;;5070361;28;20480;-48
2022/01/18 02:53:29;;;;;;;32.92;6.28;;;6.70;99.90;;;;;;5060723;28;20176;-51
2022/01/18 02:55:57;;;;;;;32.13;6.18;;;6.70;99.90;;;;;;5058418;28;20123;-49
2022/01/18 02:58:30;;;;;;;33.42;6.35;;;6.70;99.90;;;;;;5058510;28;20115;-51
2022/01/18 03:03:32;;;;;;;32.08;7.20;;;6.60;99.90;;;;;;5057395;28;20098;-48
2022/01/18 03:05:58;;;;;;;32.70;6.65;;;6.60;99.90;;;;;;5054945;28;20414;-49
2022/01/18 03:08:24;;;;;;;23.48;5.35;;;6.50;99.90;;;;;;5055076;28;20048;-49
2022/01/18 03:10:49;;;;;;;29.45;5.95;;;6.40;99.90;;;;;;5057562;28;20040;-51
2022/01/18 03:13:18;;;;;;;26.23;5.35;;;6.40;99.90;;;;;;5067765;28;20417;-49
2022/01/18 03:15:43;;;;;;;;;;;6.40;99.90;;;;;;5057133;28;20087;-48
2022/01/18 03:18:09;;;;;;;21.48;5.93;;;6.30;99.90;;;;;;5055820;28;19967;-49
2022/01/18 03:20:36;;;;;;;27.25;5.30;;;6.30;99.90;;;;;;5057180;28;20124;-47
2022/01/18 03:23:07;;;;;;;21.80;5.65;;;6.20;99.90;;;;;;5057784;28;20048;-47
2022/01/18 03:28:05;;;;;;;29.05;7.05;;;6.10;99.90;;;;;;5058186;28;20041;-49
2022/01/18 03:30:34;;;;;;;34.53;7.45;;;6.10;99.90;;;;;;5058459;28;20045;-50
2022/01/18 03:33:00;;;;;;;37.95;8.90;;;6.10;99.90;;;;;;5057085;28;20074;-49
2022/01/18 03:35:26;;;;;;;41.55;8.35;;;6.10;99.90;;;;;;5063285;28;20044;-49
2022/01/18 03:37:52;;;;;;;35.70;7.88;;;6.10;99.90;;;;;;5071215;28;20486;-48
2022/01/18 03:40:18;;;;;;;40.85;7.13;;;6.10;99.90;;;;;;5071711;28;20040;-48
2022/01/18 03:42:48;;;;;;;35.65;7.35;;;6.10;99.90;;;;;;5062443;28;20049;-49
2022/01/18 03:45:19;;;;;;;37.47;8.10;;;6.10;99.90;;;;;;5058250;28;20049;-51
2022/01/18 03:47:45;;;;;;;35.40;8.05;;;6.10;99.90;;;;;;5060033;28;20448;-48
2022/01/18 03:50:15;;;;;;;37.75;8.52;;;6.10;99.90;;;;;;5063644;28;20125;-49
2022/01/18 03:52:42;;;;;;;38.88;8.95;;;6.10;99.90;;;;;;5058523;28;20096;-49
2022/01/18 03:55:10;;;;;;;33.53;9.75;;;6.10;99.90;;;;;;5060723;28;20124;-50
2022/01/18 03:57:36;;;;;;;36.00;8.60;;;6.10;99.90;;;;;;5060314;28;20048;-48
2022/01/18 04:00:05;;;;;;;34.15;9.18;;;6.10;99.90;;;;;;5061964;28;20048;-48
2022/01/18 04:02:32;;;;;;;35.75;8.27;;;6.10;99.90;;;;;;5068931;28;20510;-47
2022/01/18 04:04:57;;;;;;;26.00;7.20;;;6.10;99.90;;;;;;5070111;28;20399;-46
2022/01/18 04:07:23;;;;;;;26.67;6.88;;;6.00;99.90;;;;;;5069805;28;20032;-47
2022/01/18 04:09:49;;;;;;;34.53;8.95;;;6.00;99.90;;;;;;5066127;28;20048;-49
2022/01/18 04:12:14;;;;;;;35.92;9.10;;;6.00;99.90;;;;;;5059373;28;20139;-49
2022/01/18 04:14:40;;;;;;;42.65;9.00;;;6.10;99.90;;;;;;5051058;28;20136;-52
2022/01/18 04:25:52;;;;;;;29.50;7.95;;;6.00;99.90;;;;;;5051188;28;20140;-48
2022/01/18 04:28:04;;;;;;;27.63;7.85;;;6.00;99.90;;;;;;5063260;28;20044;-48
2022/01/18 04:30:30;;;;;;;29.75;7.57;;;6.00;99.90;;;;;;5054616;28;20353;-49
2022/01/18 04:32:56;;;;;;;33.47;7.53;;;6.00;99.90;;;;;;5065717;28;20127;-49
2022/01/18 04:35:21;;;;;;;34.15;8.15;;;6.00;99.90;;;;;;5068376;28;20072;-52
2022/01/18 04:37:47;;;;;;;34.88;8.32;;;6.10;99.90;;;;;;5069385;28;20048;-47
2022/01/18 04:40:16;;;;;;;27.08;6.95;;;6.00;99.90;;;;;;5062386;28;20068;-50
2022/01/18 04:43:01;;;;;;;23.23;6.07;;;6.00;99.90;;;;;;5068185;28;20037;-49
2022/01/18 04:51:11;;;;;;;23.10;6.88;;;6.00;99.90;;;;;;5055129;28;20057;-49
2022/01/18 04:53:40;;;;;;;32.58;6.70;;;6.00;99.90;;;;;;5063801;28;20482;-48
2022/01/18 04:56:10;;;;;;;25.27;5.75;;;6.00;99.90;;;;;;5064919;28;20118;-49
2022/01/18 04:58:37;;;;;;;31.42;6.70;;;6.00;99.90;;;;;;5060124;28;20182;-48
2022/01/18 05:01:05;;;;;;;38.28;6.85;;;6.00;99.90;;;;;;5059038;28;20467;-47
2022/01/18 05:03:31;;;;;;;33.75;6.65;;;6.00;99.90;;;;;;5061105;28;21358;-49
2022/01/18 05:06:01;;;;;;;28.63;5.93;;;6.00;99.90;;;;;;5059355;28;20037;-48
2022/01/18 05:08:27;;;;;;;30.33;7.15;;;6.00;99.90;;;;;;5062550;28;20059;-47
2022/01/18 05:10:56;;;;;;;34.00;6.72;;;6.00;99.90;;;;;;5063131;28;20075;-48
2022/01/18 05:13:43;;;;;;;32.42;6.35;;;6.00;99.90;;;;;;5062928;28;20045;-47
2022/01/18 05:23:52;;;;;;;33.10;6.18;;;6.00;99.90;;;;;;5054909;28;20049;-47
2022/01/18 05:26:18;;;;;;;34.58;7.78;;;6.10;99.90;;;;;;5066735;28;20071;-47
2022/01/18 05:28:44;;;;;;;34.20;7.78;;;6.00;99.90;;;;;;5072622;28;20062;-52
2022/01/18 05:31:10;;;;;;;30.10;6.30;;;6.00;99.90;;;;;;5058086;28;20057;-50
2022/01/18 05:33:36;;;;;;;25.08;6.97;;;6.00;99.90;;;;;;5056447;28;20048;-51
2022/01/18 05:36:02;;;;;;;34.65;6.22;;;6.00;99.90;;;;;;5057972;28;20459;-51
2022/01/18 05:38:29;;;;;;;40.58;6.50;;;6.00;99.90;;;;;;5065244;28;20045;-53
2022/01/18 05:40:55;;;;;;;37.00;6.70;;;6.00;99.90;;;;;;5058779;28;20088;-50
2022/01/18 05:43:20;;;;;;;36.92;7.75;;;6.00;99.90;;;;;;5062378;28;20076;-50
2022/01/18 05:45:46;;;;;;;28.85;7.05;;;6.10;99.90;;;;;;5060504;28;20438;-51
2022/01/18 05:48:11;;;;;;;25.23;6.35;;;6.10;99.90;;;;;;5058711;28;20505;-52
2022/01/18 05:50:37;;;;;;;28.85;6.97;;;6.00;99.90;;;;;;5059941;28;20667;-51
2022/01/18 05:53:03;;;;;;;27.00;5.85;;;6.10;99.90;;;;;;5060763;28;20234;-50
2022/01/18 05:55:29;;;;;;;30.33;6.32;;;6.10;99.90;;;;;;5053021;28;20041;-48
2022/01/18 05:57:54;;;;;;;29.30;6.72;;;6.10;99.90;;;;;;5052615;28;20037;-51
2022/01/18 06:00:22;;;;;;;28.27;5.90;;;6.10;99.90;;;;;;5067048;28;20048;-51
2022/01/18 06:08:10;;;;;;;33.38;6.70;;;6.00;99.90;;;;;;5058161;28;20048;-52
2022/01/18 06:10:35;;;;;;;27.67;6.25;;;6.10;99.90;;;;;;5052842;28;20049;-49
2022/01/18 06:13:02;;;;;;;36.40;7.60;;;6.10;99.90;;;;;;5064149;28;20043;-51
2022/01/18 06:15:31;;;;;;;24.75;7.07;;;6.10;99.90;;;;;;5053735;28;20053;-51
2022/01/18 06:17:58;;;;;;;32.88;7.88;;;6.10;99.90;;;;;;5070301;28;20091;-47
2022/01/18 06:20:24;;;;;;;32.30;7.38;;;6.10;99.90;;;;;;5060451;28;20037;-46
2022/01/18 06:22:51;;;;;;;30.58;7.70;;;6.10;99.90;;;;;;5062600;28;20139;-51
2022/01/18 06:25:18;;;;;;;30.77;6.75;;;6.10;99.90;;;;;;5062109;28;20048;-48
2022/01/18 06:27:44;;;;;;;31.38;6.60;;;6.10;99.90;;;;;;5059502;28;20049;-48
2022/01/18 06:30:10;;;;;;;31.58;7.85;;;6.10;99.90;;;;;;5058637;28;20063;-49
2022/01/18 06:32:37;;;;;;;33.95;7.40;;;6.10;99.90;;;;;;5059093;28;20124;-52
2022/01/18 06:35:04;;;;;;;24.15;6.68;;;6.10;99.90;;;;;;5061144;28;20051;-46
2022/01/18 06:37:29;;;;;;;23.10;7.05;;;6.10;99.90;;;;;;5060177;28;20076;-51
2022/01/18 06:39:57;;;;;;;34.25;7.63;;;6.20;99.90;;;;;;5059070;28;20077;-52
2022/01/18 06:42:24;;;;;;;30.42;6.95;;;6.20;99.90;;;;;;5060034;28;20510;-51
2022/01/18 06:44:50;;;;;;;25.90;7.00;;;6.20;99.90;;;;;;5072253;28;20375;-49
2022/01/18 06:47:16;;;;;;;27.33;7.90;;;6.20;99.90;;;;;;5062318;28;20045;-46
2022/01/18 06:49:41;;;;;;;29.75;9.48;;;6.20;99.90;;;;;;5057674;28;20110;-48
2022/01/18 06:52:07;;;;;;;27.13;6.75;;;6.20;99.90;;;;;;5058098;28;20063;-49
2022/01/18 06:54:33;;;;;;;27.10;6.70;;;6.10;99.90;;;;;;5054621;28;20541;-50
2022/01/18 06:56:59;;;;;;;24.50;6.35;;;6.10;99.90;;;;;;5059148;28;20535;-49
2022/01/18 06:59:25;;;;;;;24.23;6.10;;;6.10;99.90;;;;;;5057688;28;20388;-50
2022/01/18 07:01:50;;;;;;;22.38;6.03;;;6.10;99.90;;;;;;5060428;28;20052;-50
2022/01/18 07:04:16;;;;;;;24.05;5.90;;;6.10;99.90;;;;;;5059709;28;20043;-49
2022/01/18 07:06:42;;;;;;;21.00;5.43;;;6.10;99.90;;;;;;5060288;28;20068;-50
2022/01/18 07:09:07;;;;;;;20.75;4.90;;;6.10;99.90;;;;;;5056517;28;20144;-46
2022/01/18 07:11:33;;;;;;;16.17;4.88;;;6.10;99.90;;;;;;5056130;28;20125;-48
2022/01/18 07:13:59;;;;;;;16.85;4.55;;;6.00;99.90;;;;;;5055832;28;20070;-50
2022/01/18 07:16:24;;;;;;;19.52;4.57;;;6.00;99.90;;;;;;5053442;28;20059;-51
2022/01/18 07:18:50;;;;;;;16.45;5.10;;;6.00;99.90;;;;;;5058446;28;20040;-48
2022/01/18 07:21:16;;;;;;;16.67;5.50;;;6.00;99.90;;;;;;5059555;28;20109;-49
2022/01/18 07:23:41;;;;;;;24.55;6.80;;;6.00;99.90;;;;;;5063118;28;20496;-48
2022/01/18 07:26:07;;;;;;;16.02;5.30;;;6.00;99.90;;;;;;5067971;28;20043;-49
2022/01/18 07:28:32;;;;;;;17.38;5.43;;;6.00;99.90;;;;;;5060680;28;20045;-48
2022/01/18 07:30:58;;;;;;;17.15;5.25;;;6.00;99.90;;;;;;5051562;28;20041;-49
2022/01/18 07:33:24;;;;;;;20.05;5.65;;;6.00;99.90;;;;;;5065080;28;20090;-48
2022/01/18 07:35:49;;;;;;;20.58;5.40;;;6.00;99.90;;;;;;5059647;28;20029;-47
2022/01/18 07:38:17;;;;;;;21.33;6.13;;;6.00;99.90;;;;;;5057013;28;20040;-48
2022/01/18 07:40:48;;;;;;;;;;;6.00;99.90;;;;;;5057306;28;20179;-47
2022/01/18 07:43:18;;;;;;;19.27;6.43;;;6.00;99.90;;;;;;5056982;28;19936;-48
2022/01/18 07:45:46;;;;;;;24.02;6.45;;;6.00;99.90;;;;;;5057265;28;20049;-47
2022/01/18 07:48:12;;;;;;;22.02;6.53;;;6.00;99.90;;;;;;5057075;28;20037;-47
2022/01/18 07:50:39;;;;;;;26.88;6.72;;;6.10;99.90;;;;;;5057292;28;20047;-51
2022/01/18 07:53:05;;;;;;;30.77;8.37;;;6.10;99.90;;;;;;5060077;28;20044;-51
2022/01/18 07:55:31;;;;;;;33.80;7.80;;;6.00;99.90;;;;;;5055864;28;20087;-48
2022/01/18 07:57:58;;;;;;;36.67;8.30;;;6.00;99.90;;;;;;5058949;28;20089;-50
2022/01/18 08:00:24;;;;;;;31.67;8.10;;;6.00;99.90;;;;;;5062994;28;20072;-47
2022/01/18 08:02:50;;;;;;;27.70;7.50;;;6.00;99.90;;;;;;5062921;28;20037;-46
2022/01/18 08:05:16;;;;;;;22.75;8.13;;;6.00;99.90;;;;;;5058349;28;20048;-48
2022/01/18 08:07:42;;;;;;;23.23;8.00;;;6.00;99.90;;;;;;5068869;28;20099;-47
2022/01/18 08:10:10;;;;;;;29.33;8.45;;;6.00;99.90;;;;;;5064478;28;20431;-48
2022/01/18 08:12:35;;;;;;;25.88;8.98;;;6.00;99.90;;;;;;5073954;28;20048;-49
2022/01/18 08:15:12;;;;;;;24.02;8.10;;;6.00;99.90;;;;;;5069709;28;20032;-49
2022/01/18 08:17:37;;;;;;;30.73;8.90;;;6.00;99.90;;;;;;5075068;28;20044;-47
2022/01/18 08:20:03;;;;;;;27.90;9.43;;;6.10;99.90;;;;;;5072311;28;20056;-50
2022/01/18 08:22:29;;;;;;;25.38;9.27;;;6.10;99.90;;;;;;5071027;28;20048;-50
2022/01/18 08:24:54;;;;;;;24.05;8.38;;;6.10;99.90;;;;;;5067631;28;20724;-49
2022/01/18 08:27:21;;;;;;;26.50;9.70;;;6.10;99.90;;;;;;5059861;28;20131;-49
2022/01/18 08:29:47;;;;;;;21.90;8.52;;;6.10;99.90;;;;;;5062100;28;20061;-47
2022/01/18 08:32:12;;;;;;;26.35;9.50;;;6.10;99.90;;;;;;5060841;28;20522;-50
2022/01/18 08:34:38;;;;;;;27.65;9.85;;;6.10;99.90;;;;;;5063659;28;20045;-48
2022/01/18 08:37:04;;;;;;;31.63;10.60;;;6.20;99.90;;;;;;5068274;28;20045;-47
2022/01/18 08:39:29;;;;;;;27.55;9.95;;;6.10;99.90;;;;;;5062091;28;20040;-50
2022/01/18 08:41:55;;;;;;;26.85;9.25;;;6.10;99.90;;;;;;5061253;28;20041;-47
2022/01/18 08:44:21;;;;;;;29.48;9.75;;;6.10;99.90;;;;;;5068517;28;20092;-46
2022/01/18 08:46:46;;;;;;;30.63;9.13;;;6.10;99.90;;;;;;5061492;28;20045;-47
2022/01/18 08:49:12;;;;;;;23.15;9.02;;;6.10;99.90;;;;;;5059515;28;20082;-51
2022/01/18 08:51:37;;;;;;;25.67;9.57;;;6.10;99.90;;;;;;5058810;28;20474;-47
2022/01/18 08:54:04;;;;;;;26.55;9.13;;;6.20;99.90;;;;;;5057713;28;20465;-49
2022/01/18 08:56:30;;;;;;;29.52;10.77;;;6.20;99.90;;;;;;5059621;28;20559;-49
2022/01/18 08:58:57;;;;;;;26.27;9.48;;;6.20;99.90;;;;;;5058616;28;20044;-52
2022/01/18 09:01:23;;;;;;;27.70;10.52;;;6.20;99.90;;;;;;5058924;28;20049;-51
2022/01/18 09:03:50;;;;;;;28.92;9.68;;;6.20;99.90;;;;;;5057961;28;20044;-52
2022/01/18 09:06:16;;;;;;;25.80;9.82;;;6.20;99.90;;;;;;5061385;28;20054;-52
2022/01/18 09:08:43;;;;;;;17.98;8.65;;;6.20;99.90;;;;;;5059102;28;20033;-52
2022/01/18 09:11:12;;;;;;;18.48;8.38;;;6.20;99.90;;;;;;5057964;28;20039;-50
2022/01/18 09:13:39;;;;;;;23.25;8.75;;;6.20;99.90;;;;;;5061675;28;20116;-49
2022/01/18 09:16:06;;;;;;;22.20;8.93;;;6.30;99.90;;;;;;5084571;28;20135;-47
2022/01/18 09:18:35;;;;;;;23.90;9.52;;;6.30;99.90;;;;;;5072492;28;20040;-50
2022/01/18 09:21:01;;;;;;;21.90;8.70;;;6.30;99.90;;;;;;5070359;28;20036;-48
2022/01/18 09:23:26;;;;;;;21.88;8.90;;;6.30;99.90;;;;;;5059844;28;20071;-50
2022/01/18 09:25:52;;;;;;;23.30;8.80;;;6.40;99.90;;;;;;5072592;28;20498;-47
2022/01/18 09:28:17;;;;;;;24.40;9.45;;;6.40;99.90;;;;;;5065650;28;20043;-48
2022/01/18 09:30:43;;;;;;;29.98;9.93;;;6.40;99.90;;;;;;5072779;28;20056;-48
2022/01/18 09:33:08;;;;;;;27.77;9.43;;;6.40;99.90;;;;;;5067473;28;20093;-48
2022/01/18 09:35:36;;;;;;;24.73;9.45;;;6.40;99.90;;;;;;5071603;28;20041;-49
2022/01/18 09:38:02;;;;;;;28.55;9.55;;;6.50;99.90;;;;;;5064657;28;20053;-51
2022/01/18 09:40:28;;;;;;;25.48;9.80;;;6.50;99.90;;;;;;5069981;28;20124;-49
2022/01/18 09:42:59;;;;;;;22.45;9.93;;;6.60;99.90;;;;;;5066823;28;20383;-49
2022/01/18 09:45:26;;;;;;;21.70;8.75;;;6.60;99.90;;;;;;5052047;28;20041;-48
2022/01/18 09:47:54;;;;;;;22.42;8.55;;;;;;;;;;5063055;28;20414;-50
2022/01/18 09:50:21;;;;;;;18.15;8.55;;;;;;;;;;5071891;28;20449;-48
2022/01/18 09:52:52;;;;;;;16.88;9.27;;;;;;;;;;5073364;28;20048;-49
2022/01/18 09:55:18;;;;;;;18.55;9.00;;;;;;;;;;5072491;28;20036;-48
2022/01/18 09:57:44;;;;;;;22.35;8.73;;;;;;;;;;5068759;28;20048;-50
2022/01/18 10:00:10;;;;;;;24.92;8.88;;;;;;;;;;5052995;28;20395;-48
2022/01/18 10:02:37;;;;;;;19.25;8.95;;;;;;;;;;5053034;28;20367;-48
2022/01/18 10:05:17;;;;;;;16.52;8.32;;;;;;;;;;5069225;28;20500;-49
2022/01/18 10:07:43;;;;;;;16.15;7.82;;;;;;;;;;5072791;28;20068;-48
2022/01/18 10:10:09;;;;;;;14.57;7.78;;;;;;;;;;5072711;28;20079;-51
2022/01/18 10:12:35;;;;;;;16.13;7.95;;;;;;;;;;5072706;28;20044;-49
2022/01/18 10:15:04;;;;;;;20.63;9.02;;;;;;;;;;5069423;28;20048;-49
2022/01/18 10:17:38;;;;;;;20.73;7.63;;;;;;;;;;5072463;28;20494;-48
2022/01/18 10:20:08;;;;;;;18.27;7.88;;;;;;;;;;5066258;28;20571;-47
2022/01/18 10:22:41;;;;;;;24.45;8.00;;;;;;;;;;5070647;28;20040;-47
2022/01/18 10:25:14;;;;;;;18.38;8.07;;;;;;;;;;5071791;28;20033;-51
2022/01/18 10:27:40;;;;;;;16.90;8.30;;;;;;;;;;5071740;28;20063;-48
2022/01/18 10:30:08;;;;;;;28.85;9.15;;;;;;;;;;5060884;28;20037;-48
2022/01/18 10:32:40;;;;;;;17.55;7.90;;;;;;;;;;5071107;28;20048;-52
2022/01/18 10:35:08;;;;;;;23.17;8.00;;;;;;;;;;5065573;28;20075;-48
2022/01/18 10:37:35;;;;;;;14.43;7.32;;;;;;;;;;5068336;28;20037;-48
2022/01/18 10:40:04;;;;;;;14.43;7.15;;;;;;;;;;5069190;28;20040;-47
2022/01/18 10:42:36;;;;;;;14.18;7.03;;;;;;;;;;5062722;28;20522;-46
2022/01/18 10:45:10;;;;;;;18.75;7.38;;;;;;;;;;5085832;28;20048;-49
2022/01/18 10:47:37;;;;;;;13.02;7.00;;;;;;;;;;5077222;28;20054;-46
2022/01/18 10:50:08;;;;;;;12.38;6.97;;;;;;;;;;5070194;28;20040;-47
2022/01/18 10:52:34;;;;;;;14.20;7.80;;;;;;;;;;5071062;28;20059;-48
2022/01/18 10:55:00;;;;;;;13.55;7.40;;;;;;;;;;5070947;28;20075;-46
2022/01/18 10:57:27;;;;;;;13.25;7.50;;;;;;;;;;5070585;28;20463;-48
2022/01/18 10:59:56;;;;;;;12.32;7.03;;;;;;;;;;5062457;28;20509;-48
2022/01/18 11:02:22;;;;;;;11.35;7.43;;;;;;;;;;5071525;28;20053;-48
2022/01/18 11:04:53;;;;;;;11.77;7.40;;;;;;;;;;5071883;28;20052;-50
2022/01/18 11:07:21;;;;;;;12.77;7.10;;;;;;;;;;5071913;28;20056;-50
2022/01/18 11:09:47;;;;;;;9.50;6.50;;;;;;;;;;5071828;28;20049;-47
2022/01/18 11:12:13;;;;;;;13.73;7.13;;;;;;;;;;5069864;28;20048;-48
2022/01/18 11:14:43;;;;;;;11.32;6.32;;;;;;;;;;5067383;28;20524;-49
2022/01/18 11:17:14;;;;;;;13.18;6.82;;;;;;;;;;5071218;28;20048;-49
2022/01/18 11:19:40;;;;;;;12.02;6.90;;;;;;;;;;5064506;28;20490;-50
2022/01/18 11:22:10;;;;;;;12.10;6.20;;;;;;;;;;5057854;28;20112;-52
2022/01/18 11:24:41;;;;;;;13.57;6.75;;;;;;;;;;5065444;28;20036;-49
2022/01/18 11:27:11;;;;;;;10.43;6.38;;;;;;;;;;5065778;28;20131;-47
2022/01/18 11:29:37;;;;;;;10.10;6.30;;;;;;;;;;5061824;28;20056;-52
2022/01/18 11:32:04;;;;;;;9.38;6.13;;;;;;;;;;5051564;28;20048;-52
2022/01/18 11:34:55;;;;;;;10.48;6.10;;;;;;;;;;5055767;28;20045;-51
2022/01/18 11:37:27;;;;;;;8.48;5.90;;;;;;;;;;5066853;28;20128;-51
2022/01/18 11:39:57;;;;;;;12.77;6.93;;;;;;;;;;5066853;28;20222;-47
2022/01/18 11:42:23;;;;;;;12.15;5.97;;;;;;;;;;5071890;28;20048;-53
2022/01/18 11:44:49;;;;;;;9.27;5.72;;;;;;;;;;5076513;28;20063;-52
2022/01/18 11:47:27;;;;;;;11.90;5.43;;;;;;;;;;5070991;28;20056;-51
2022/01/18 11:49:53;;;;;;;10.25;5.15;;;;;;;;;;5063367;28;20414;-49
2022/01/18 11:52:35;;;;;;;9.27;5.13;;;;;;;;;;5058426;28;20052;-51
2022/01/18 11:55:03;;;;;;;9.02;5.13;;;;;;;;;;5064500;28;20098;-50
2022/01/18 11:57:29;;;;;;;;;;;;;;;;;;5062657;28;20052;-52
2022/01/18 12:00:08;;;;;;;10.30;5.40;;;;;;;;;;5062251;28;20306;-52
2022/01/18 12:02:39;;;;;;;7.85;4.28;;;;;;;;;;5065199;28;20462;-52
2022/01/18 12:05:19;;;;;;;8.80;4.38;;;;;;;;;;5062946;28;20430;-52
2022/01/18 12:07:47;;;;;;;8.02;4.80;;;;;;;;;;5060692;28;20047;-53
2022/01/18 12:10:33;;;;;;;9.43;3.85;;;;;;;;;;5062019;28;20546;-52
2022/01/18 12:13:00;;;;;;;12.57;4.93;;;;;;;;;;5064137;28;20529;-53
2022/01/18 12:15:29;;;;;;;8.75;4.25;;;;;;;;;;5065829;28;20053;-52
2022/01/18 12:18:01;;;;;;;9.48;4.00;;;;;;;;;;5065192;28;20138;-52
2022/01/18 12:20:46;;;;;;;8.68;3.78;;;;;;;;;;5061236;28;20060;-51
2022/01/18 12:23:20;;;;;;;11.40;4.25;;;;;;;;;;5061656;28;20052;-53
2022/01/18 12:26:00;;;;;;;9.75;3.90;;;;;;;;;;5061448;28;20056;-52
2022/01/18 12:31:53;;;;;;;10.38;4.43;;;;;;;;;;5060966;28;20040;-53
2022/01/18 12:34:19;;;;;;;;;;;;;;;;;;5059150;28;20084;-52
2022/01/18 12:36:45;;;;;;;9.55;4.10;;;;;;;;;;5067948;28;20005;-51
2022/01/18 12:39:12;;;;;;;9.60;4.15;;;;;;;;;;5062895;28;20037;-49
2022/01/18 12:41:47;;;;;;;8.43;4.22;;;;;;;;;;5071009;28;20414;-50
2022/01/18 12:44:22;;;;;;;8.32;4.25;;;;;;;;;;5062023;28;20064;-51
2022/01/18 12:46:51;;;;;;;10.10;3.75;;;;;;;;;;5062128;28;20040;-53
2022/01/18 12:49:18;;;;;;;10.23;3.58;;;;;;;;;;5060249;28;20041;-52
2022/01/18 12:51:44;;;;;;;8.93;3.72;;;;;;;;;;5065149;28;20125;-52
2022/01/18 12:54:10;;;;;;;8.90;3.63;;;;;;;;;;5058932;28;20045;-52
2022/01/18 12:56:37;;;;;;;7.53;3.35;;;;;;;;;;5069188;28;20091;-51
2022/01/18 12:59:04;;;;;;;10.57;3.55;;;;;;;;;;5071594;28;20052;-51
2022/01/18 13:01:31;;;;;;;12.23;3.60;;;;;;;;;;5070128;28;20068;-54
2022/01/18 13:03:57;;;;;;;9.48;3.60;;;;;;;;;;5073190;28;20044;-54
2022/01/18 13:06:32;;;;;;;8.95;3.10;;;;;;;;;;5073487;28;20044;-52
2022/01/18 13:08:59;;;;;;;11.55;2.97;;;;;;;;;;5071323;28;20033;-53
2022/01/18 13:11:29;;;;;;;9.20;3.05;;;;;;;;;;5070617;28;20040;-52
2022/01/18 13:14:04;;;;;;;9.60;3.28;;;;;;;;;;5069759;28;20048;-54
2022/01/18 13:27:28;;;;;;;12.43;3.30;;;;;;;;;;5073765;28;20044;-52
2022/01/18 13:30:02;;;;;;;13.35;3.70;;;;;;;;;;5069185;28;20048;-53
2022/01/18 13:32:33;;;;;;;13.30;3.83;;;;;;;;;;5066802;28;20123;-54
2022/01/18 13:35:01;;;;;;;10.07;3.63;;;;;;;;;;5068603;28;20036;-49
2022/01/18 13:37:33;;;;;;;10.38;3.63;;;;;;;;;;5051494;28;20430;-53
2022/01/18 13:40:01;;;;;;;10.63;3.75;;;;;;;;;;5060784;28;20049;-51
2022/01/18 13:42:34;;;;;;;12.73;3.53;;;;;;;;;;5059918;28;20120;-52
2022/01/18 13:45:06;;;;;;;11.82;3.50;;;;;;;;;;5060178;28;20052;-51
2022/01/18 13:47:38;;;;;;;11.00;3.90;;;;;;;;;;5057260;28;20033;-51
2022/01/18 13:50:04;;;;;;;14.65;3.88;;;;;;;;;;5063899;28;20471;-49
2022/01/18 13:52:31;;;;;;;9.75;3.95;;;;;;;;;;5059957;28;20044;-48
2022/01/18 13:54:57;;;;;;;13.52;4.00;;;;;;;;;;5062520;28;20044;-50
2022/01/18 13:57:24;;;;;;;12.25;4.35;;;;;;;;;;5071336;28;20040;-50
2022/01/18 13:59:51;;;;;;;13.25;3.70;;;;;;;;;;5071885;28;20068;-52
2022/01/18 14:02:20;;;;;;;16.30;3.67;;;;;;;;;;5071010;28;20394;-53
2022/01/18 14:04:48;;;;;;;13.05;3.80;;;;;;;;;;5065636;28;20060;-53
2022/01/18 14:07:14;;;;;;;10.75;3.72;;;;;;;;;;5054837;28;20048;-50
2022/01/18 14:09:40;;;;;;;12.05;4.03;;;;;;;;;;5071647;28;20044;-49
2022/01/18 14:12:13;;;;;;;13.23;4.45;;;;;;;;;;5056487;28;20407;-53
2022/01/18 14:14:41;;;;;;;11.63;4.07;;;;;;;;;;5065492;28;20119;-49
2022/01/18 14:17:12;;;;;;;11.77;4.18;;;;;;;;;;5052796;28;20176;-49
2022/01/18 14:19:39;;;;;;;9.18;4.10;;;;;;;;;;5069487;28;20471;-48
2022/01/18 14:22:12;;;;;;;12.07;4.27;;;;;;;;;;5065704;28;20398;-52
2022/01/18 14:24:40;;;;;;;8.82;3.60;;;;;;;;;;5068062;28;20045;-50
2022/01/18 14:27:08;;;;;;;10.15;4.28;;;;;;;;;;5053258;28;20157;-53
2022/01/18 14:29:34;;;;;;;;;;;;;;;;;;5062458;28;20059;-49
2022/01/18 14:32:01;;;;;;;11.25;4.40;;;;;;;;;;5067892;28;19920;-51
2022/01/18 14:34:37;;;;;;;11.13;4.47;;;;;;;;;;5071551;28;20071;-51
2022/01/18 14:37:04;;;;;;;12.88;4.43;;;;;;;;;;5071197;28;20037;-52
2022/01/18 14:39:30;;;;;;;18.52;4.95;;;;;;;;;;5072617;28;20160;-50
2022/01/18 14:42:06;;;;;;;8.73;4.65;;;;;;;;;;5064716;28;20045;-50
2022/01/18 14:44:48;;;;;;;13.50;5.40;;;;;;;;;;5052734;28;20052;-53
2022/01/18 14:47:25;;;;;;;11.90;5.05;;;;;;;;;;5052189;28;20045;-51
2022/01/18 14:49:51;;;;;;;14.43;5.60;;;;;;;;;;5052169;28;20534;-51